createdAt,value
2022-10-22T00:00:56.517Z,89.40
2022-10-22T00:03:23.238Z,89.44
2022-10-22T00:05:49.712Z,89.20
2022-10-22T00:08:16.203Z,89.06
2022-10-22T00:10:43.993Z,88.99
2022-10-22T00:13:11.419Z,89.09
2022-10-22T00:15:38.185Z,89.28
2022-10-22T00:18:04.930Z,88.87
2022-10-22T00:20:31.656Z,89.12
2022-10-22T00:22:58.149Z,88.85
2022-10-22T00:25:24.732Z,88.69
2022-10-22T00:27:52.593Z,88.82
2022-10-22T00:30:19.329Z,88.80
2022-10-22T00:32:45.800Z,88.55
2022-10-22T00:35:12.301Z,88.76
2022-10-22T00:37:38.822Z,89.04
2022-10-22T00:40:06.185Z,88.56
2022-10-22T00:42:32.648Z,88.24
2022-10-22T00:45:16.088Z,87.97
2022-10-22T00:47:45.478Z,88.33
2022-10-22T00:50:17.615Z,88.18
2022-10-22T00:52:44.463Z,88.03
2022-10-22T00:55:12.384Z,87.83
2022-10-22T00:57:39.346Z,87.55
2022-10-22T01:00:09.372Z,87.68
2022-10-22T01:02:36.052Z,87.53
2022-10-22T01:05:03.795Z,87.45
2022-10-22T01:07:30.630Z,87.66
2022-10-22T01:10:05.934Z,87.68
2022-10-22T01:12:43.624Z,87.58
2022-10-22T01:15:19.480Z,87.90
2022-10-22T01:17:54.239Z,87.80
2022-10-22T01:20:44.409Z,87.70
2022-10-22T01:23:26.451Z,88.16
2022-10-22T01:25:58.559Z,89.05
2022-10-22T01:28:43.014Z,89.18
2022-10-22T01:31:13.322Z,89.30
2022-10-22T01:33:40.679Z,88.86
2022-10-22T01:36:08.239Z,88.39
2022-10-22T01:38:36.070Z,88.37
2022-10-22T01:41:02.879Z,88.08
2022-10-22T01:43:29.403Z,88.02
2022-10-22T01:46:00.793Z,88.56
2022-10-22T01:48:39.443Z,88.40
2022-10-22T01:51:22.273Z,88.23
2022-10-22T01:53:54.158Z,87.92
2022-10-22T01:56:39.028Z,87.85
2022-10-22T01:59:12.809Z,87.92
2022-10-22T02:01:48.156Z,87.61
2022-10-22T02:04:20.233Z,87.42
2022-10-22T02:06:50.608Z,87.42
2022-10-22T02:09:19.993Z,87.45
2022-10-22T02:11:48.541Z,87.45
2022-10-22T02:14:17.658Z,87.30
2022-10-22T02:16:48.139Z,87.38
2022-10-22T02:19:19.639Z,87.73
2022-10-22T02:21:46.209Z,87.83
2022-10-22T02:24:13.157Z,87.80
2022-10-22T02:26:44.712Z,87.65
2022-10-22T02:29:15.329Z,87.78
2022-10-22T02:31:46.794Z,88.22
2022-10-22T02:34:24.185Z,88.28
2022-10-22T02:36:51.500Z,88.16
2022-10-22T02:39:20.746Z,87.95
2022-10-22T02:41:48.383Z,87.80
2022-10-22T02:44:14.960Z,87.22
2022-10-22T02:46:43.263Z,87.37
2022-10-22T02:49:11.186Z,87.40
2022-10-22T02:51:37.703Z,87.51
2022-10-22T02:54:04.270Z,87.59
2022-10-22T02:56:30.787Z,87.05
2022-10-22T02:58:57.314Z,87.17
2022-10-22T03:01:23.932Z,87.14
2022-10-22T03:03:50.740Z,87.59
2022-10-22T03:06:18.751Z,87.79
2022-10-22T03:08:45.683Z,88.00
2022-10-22T03:11:12.235Z,87.74
2022-10-22T03:13:38.724Z,87.85
2022-10-22T03:16:05.935Z,87.54
2022-10-22T03:18:32.429Z,87.68
2022-10-22T03:21:07.748Z,87.36
2022-10-22T03:23:36.153Z,87.51
2022-10-22T03:26:03.645Z,87.49
2022-10-22T03:28:30.295Z,87.27
2022-10-22T03:30:56.745Z,87.24
2022-10-22T03:33:23.245Z,87.43
2022-10-22T03:35:49.750Z,87.57
2022-10-22T03:38:16.465Z,87.54
2022-10-22T03:40:45.425Z,87.76
2022-10-22T03:43:12.209Z,87.77
2022-10-22T03:48:10.199Z,87.44
2022-10-22T03:50:36.673Z,86.99
2022-10-22T03:53:03.816Z,86.83
2022-10-22T03:55:30.460Z,87.26
2022-10-22T03:57:58.290Z,87.47
2022-10-22T04:00:24.751Z,87.50
2022-10-22T04:02:51.449Z,87.59
2022-10-22T04:05:17.970Z,87.02
2022-10-22T04:07:44.568Z,87.11
2022-10-22T04:10:11.077Z,86.96
2022-10-22T04:12:37.630Z,86.94
2022-10-22T04:15:06.446Z,86.60
2022-10-22T04:17:34.486Z,86.94
2022-10-22T04:20:01.509Z,87.19
2022-10-22T04:22:28.178Z,87.40
2022-10-22T04:24:54.810Z,87.16
2022-10-22T04:27:21.394Z,87.42
2022-10-22T04:29:47.854Z,87.01
2022-10-22T04:32:15.776Z,86.83
2022-10-22T04:34:42.318Z,86.61
2022-10-22T04:37:08.802Z,86.65
2022-10-22T04:39:35.282Z,86.88
2022-10-22T04:42:01.819Z,86.74
2022-10-22T04:44:28.304Z,86.98
2022-10-22T04:46:54.821Z,87.09
2022-10-22T04:49:22.682Z,86.91
2022-10-22T04:51:49.219Z,87.02
2022-10-22T04:54:15.824Z,87.31
2022-10-22T04:56:42.372Z,86.83
2022-10-22T04:59:10.661Z,86.83
2022-10-22T05:01:42.658Z,86.86
2022-10-22T05:04:12.417Z,86.88
2022-10-22T05:06:40.739Z,86.70
2022-10-22T05:09:11.531Z,86.86
2022-10-22T05:11:40.855Z,86.70
2022-10-22T05:14:08.583Z,86.80
2022-10-22T05:16:35.800Z,86.60
2022-10-22T05:19:03.785Z,86.69
2022-10-22T05:21:30.843Z,86.50
2022-10-22T05:23:58.926Z,86.49
2022-10-22T05:26:26.020Z,86.58
2022-10-22T05:28:52.873Z,86.46
2022-10-22T05:31:20.661Z,86.57
2022-10-22T05:33:47.411Z,86.46
2022-10-22T05:36:15.735Z,87.14
2022-10-22T05:38:42.393Z,86.97
2022-10-22T05:41:12.708Z,86.73
2022-10-22T05:43:39.900Z,86.51
2022-10-22T05:46:08.224Z,86.38
2022-10-22T05:48:35.413Z,86.51
2022-10-22T05:51:02.300Z,86.40
2022-10-22T05:53:28.771Z,86.69
2022-10-22T05:55:55.237Z,86.49
2022-10-22T05:58:23.054Z,86.60
2022-10-22T06:00:49.555Z,86.45
2022-10-22T06:03:16.073Z,86.35
2022-10-22T06:05:42.660Z,86.46
2022-10-22T06:08:14.501Z,86.73
2022-10-22T06:10:44.678Z,87.16
2022-10-22T06:13:11.180Z,87.07
2022-10-22T06:15:39.022Z,87.19
2022-10-22T06:18:05.608Z,87.30
2022-10-22T06:20:34.120Z,87.39
2022-10-22T06:23:00.699Z,87.43
2022-10-22T06:25:27.195Z,87.99
2022-10-22T06:27:53.651Z,87.59
2022-10-22T06:30:20.182Z,87.63
2022-10-22T06:32:47.993Z,87.86
2022-10-22T06:35:14.722Z,88.18
2022-10-22T06:37:41.475Z,88.15
2022-10-22T06:40:09.113Z,88.32
2022-10-22T06:42:35.649Z,88.49
2022-10-22T06:47:33.707Z,88.94
2022-10-22T06:50:01.721Z,89.23
2022-10-22T06:52:28.220Z,89.28
2022-10-22T06:54:54.749Z,89.38
2022-10-22T06:57:21.529Z,89.58
2022-10-22T06:59:48.019Z,89.89
2022-10-22T07:02:14.512Z,90.28
2022-10-22T07:04:41.006Z,90.19
2022-10-22T07:07:08.858Z,90.49
2022-10-22T07:09:35.345Z,90.74
2022-10-22T07:12:01.857Z,90.69
2022-10-22T07:14:28.378Z,90.88
2022-10-22T07:16:55.089Z,91.18
2022-10-22T07:19:21.686Z,91.50
2022-10-22T07:21:48.209Z,91.34
2022-10-22T07:24:16.046Z,91.74
2022-10-22T07:26:42.587Z,91.83
2022-10-22T07:29:09.094Z,92.05
2022-10-22T07:31:35.678Z,92.40
2022-10-22T07:34:02.386Z,92.31
2022-10-22T07:36:28.954Z,92.44
2022-10-22T07:38:57.379Z,92.45
2022-10-22T07:41:26.295Z,92.47
2022-10-22T07:43:52.935Z,92.61
2022-10-22T07:46:20.133Z,92.61
2022-10-22T07:48:46.987Z,92.68
2022-10-22T07:51:14.028Z,92.49
2022-10-22T07:53:40.838Z,92.66
2022-10-22T07:56:07.814Z,92.51
2022-10-22T07:58:35.949Z,92.17
2022-10-22T08:01:03.532Z,92.41
2022-10-22T08:03:30.329Z,92.15
2022-10-22T08:05:56.886Z,92.05
2022-10-22T08:08:27.053Z,91.73
2022-10-22T08:10:58.042Z,91.56
2022-10-22T08:13:24.692Z,91.49
2022-10-22T08:15:56.439Z,91.55
2022-10-22T08:18:24.308Z,91.41
2022-10-22T08:20:51.340Z,91.48
2022-10-22T08:23:18.288Z,91.37
2022-10-22T08:25:44.777Z,91.13
2022-10-22T08:28:11.518Z,91.00
2022-10-22T08:30:38.149Z,90.88
2022-10-22T08:33:06.209Z,90.80
2022-10-22T08:35:32.755Z,90.66
2022-10-22T08:37:59.543Z,90.79
2022-10-22T08:40:31.826Z,90.00
2022-10-22T08:43:34.188Z,90.01
2022-10-22T08:46:11.995Z,89.69
2022-10-22T08:48:46.256Z,89.48
2022-10-22T08:51:16.968Z,89.36
2022-10-22T08:53:54.128Z,89.45
2022-10-22T08:56:23.719Z,89.02
2022-10-22T08:58:56.457Z,89.04
2022-10-22T09:01:32.464Z,88.94
2022-10-22T09:04:06.713Z,89.13
2022-10-22T09:06:36.674Z,89.03
2022-10-22T09:09:12.514Z,88.78
2022-10-22T09:11:42.141Z,88.80
2022-10-22T09:14:12.814Z,88.47
2022-10-22T09:16:56.021Z,88.18
2022-10-22T09:19:31.540Z,88.43
2022-10-22T09:22:08.103Z,88.60
2022-10-22T09:24:38.387Z,88.69
2022-10-22T09:27:11.215Z,88.46
2022-10-22T09:29:37.819Z,88.03
2022-10-22T09:32:05.059Z,87.68
2022-10-22T09:34:33.355Z,87.42
2022-10-22T09:37:01.228Z,87.37
2022-10-22T09:39:31.646Z,87.01
2022-10-22T09:41:58.195Z,86.83
2022-10-22T09:44:24.808Z,87.20
2022-10-22T09:46:51.549Z,86.88
2022-10-22T09:49:21.190Z,87.07
2022-10-22T09:51:55.033Z,86.71
2022-10-22T09:54:24.507Z,86.82
2022-10-22T09:56:54.366Z,87.09
2022-10-22T09:59:28.101Z,86.53
2022-10-22T10:02:13.555Z,86.60
2022-10-22T10:04:49.535Z,86.58
2022-10-22T10:07:20.033Z,87.01
2022-10-22T10:09:46.587Z,86.75
2022-10-22T10:12:24.693Z,86.69
2022-10-22T10:14:59.325Z,85.65
2022-10-22T10:17:33.836Z,85.43
2022-10-22T10:20:16.078Z,85.12
2022-10-22T10:22:54.971Z,84.34
2022-10-22T10:25:41.436Z,84.40
2022-10-22T10:28:20.693Z,84.15
2022-10-22T10:30:54.379Z,84.52
2022-10-22T10:33:32.924Z,84.17
2022-10-22T10:36:08.571Z,83.92
2022-10-22T10:41:49.026Z,84.28
2022-10-22T10:44:39.241Z,84.67
2022-10-22T10:47:18.515Z,84.33
2022-10-22T10:49:45.973Z,83.45
2022-10-22T10:52:21.326Z,82.44
2022-10-22T10:54:57.738Z,82.29
2022-10-22T10:57:40.586Z,82.15
2022-10-22T11:00:11.656Z,82.30
2022-10-22T11:03:03.232Z,82.43
2022-10-22T11:05:39.387Z,81.55
2022-10-22T11:08:13.523Z,80.95
2022-10-22T11:10:46.257Z,81.05
2022-10-22T11:16:21.025Z,79.82
2022-10-22T11:18:54.287Z,78.50
2022-10-22T11:21:27.011Z,79.01
2022-10-22T11:24:00.825Z,79.59
2022-10-22T11:26:38.840Z,78.78
2022-10-22T11:29:11.724Z,79.11
2022-10-22T11:31:38.877Z,78.27
2022-10-22T11:34:32.805Z,77.71
2022-10-22T11:37:00.075Z,78.03
2022-10-22T11:42:34.784Z,77.38
2022-10-22T11:45:04.933Z,77.53
2022-10-22T11:47:34.430Z,77.59
2022-10-22T11:50:18.458Z,78.48
2022-10-22T11:52:54.791Z,77.54
2022-10-22T11:55:45.400Z,77.42
2022-10-22T11:58:34.787Z,76.43
2022-10-22T12:01:26.944Z,76.78
2022-10-22T12:04:09.474Z,77.09
2022-10-22T12:06:52.894Z,76.55
2022-10-22T12:09:20.175Z,76.87
2022-10-22T12:11:49.434Z,76.32
2022-10-22T12:17:15.775Z,76.15
2022-10-22T12:19:44.495Z,75.39
2022-10-22T12:22:15.487Z,75.99
2022-10-22T12:24:45.570Z,75.46
2022-10-22T12:27:22.201Z,75.72
2022-10-22T12:29:54.552Z,74.91
2022-10-22T12:32:21.247Z,75.18
2022-10-22T12:37:21.005Z,74.90
2022-10-22T12:39:47.481Z,74.24
2022-10-22T12:42:16.030Z,74.62
2022-10-22T12:44:43.660Z,73.52
2022-10-22T12:47:16.159Z,73.17
2022-10-22T12:49:47.867Z,73.83
2022-10-22T12:52:20.303Z,73.47
2022-10-22T12:54:49.100Z,73.66
2022-10-22T12:57:18.335Z,72.92
2022-10-22T12:59:50.021Z,73.29
2022-10-22T13:02:21.663Z,73.28
2022-10-22T13:05:22.840Z,73.26
2022-10-22T13:07:51.594Z,72.84
2022-10-22T13:10:24.374Z,72.79
2022-10-22T13:12:54.681Z,71.98
2022-10-22T13:15:33.166Z,72.61
2022-10-22T13:18:14.666Z,72.80
2022-10-22T13:20:50.853Z,72.18
2022-10-22T13:23:19.504Z,71.66
2022-10-22T13:25:57.502Z,71.54
2022-10-22T13:28:24.666Z,71.29
2022-10-22T13:30:53.161Z,71.57
2022-10-22T13:33:24.304Z,71.33
2022-10-22T13:35:51.041Z,71.38
2022-10-22T13:38:20.108Z,70.65
2022-10-22T13:40:46.640Z,70.69
2022-10-22T13:43:13.545Z,70.86
2022-10-22T13:45:40.363Z,70.39
2022-10-22T13:48:14.649Z,70.61
2022-10-22T13:50:42.970Z,69.67
2022-10-22T13:53:18.666Z,70.02
2022-10-22T13:55:45.884Z,69.74
2022-10-22T13:58:14.031Z,69.77
2022-10-22T14:00:43.234Z,69.44
2022-10-22T14:03:11.478Z,70.30
2022-10-22T14:05:37.967Z,69.69
2022-10-22T14:08:11.459Z,70.66
2022-10-22T14:10:37.767Z,69.90
2022-10-22T14:13:06.332Z,70.43
2022-10-22T14:15:32.898Z,70.45
2022-10-22T14:18:00.231Z,70.25
2022-10-22T14:20:29.222Z,69.99
2022-10-22T14:22:56.204Z,69.72
2022-10-22T14:25:25.947Z,70.54
2022-10-22T14:27:52.887Z,70.52
2022-10-22T14:30:22.453Z,70.10
2022-10-22T14:32:49.344Z,70.55
2022-10-22T14:35:17.852Z,70.04
2022-10-22T14:37:44.394Z,70.80
2022-10-22T14:40:14.013Z,70.84
2022-10-22T14:42:44.424Z,70.64
2022-10-22T14:45:17.078Z,71.14
2022-10-22T14:47:43.816Z,71.70
2022-10-22T14:50:11.110Z,72.12
2022-10-22T14:52:37.620Z,72.82
2022-10-22T14:55:04.851Z,72.45
2022-10-22T14:57:31.376Z,73.18
2022-10-22T14:59:59.300Z,73.00
2022-10-22T15:02:25.798Z,73.46
2022-10-22T15:04:52.346Z,74.31
2022-10-22T15:07:19.145Z,74.65
2022-10-22T15:09:46.042Z,74.37
2022-10-22T15:12:12.579Z,74.60
2022-10-22T15:14:39.129Z,74.88
2022-10-22T15:17:06.977Z,75.18
2022-10-22T15:19:33.533Z,75.32
2022-10-22T15:22:00.058Z,75.17
2022-10-22T15:24:26.565Z,75.38
2022-10-22T15:26:53.106Z,76.26
2022-10-22T15:29:19.729Z,76.32
2022-10-22T15:31:48.634Z,76.67
2022-10-22T15:34:20.815Z,76.34
2022-10-22T15:36:47.320Z,76.23
2022-10-22T15:39:14.017Z,76.38
2022-10-22T15:41:40.922Z,76.53
2022-10-22T15:44:07.895Z,76.57
2022-10-22T15:46:35.575Z,76.67
2022-10-22T15:49:02.182Z,76.97
2022-10-22T15:51:30.044Z,77.21
2022-10-22T15:53:58.349Z,77.47
2022-10-22T15:56:26.779Z,77.64
2022-10-22T15:58:54.422Z,77.71
2022-10-22T16:01:21.049Z,77.57
2022-10-22T16:03:47.604Z,77.60
2022-10-22T16:06:14.111Z,77.67
2022-10-22T16:08:42.235Z,77.90
2022-10-22T16:11:09.912Z,77.93
2022-10-22T16:13:36.393Z,78.14
2022-10-22T16:16:05.337Z,78.45
2022-10-22T16:18:31.928Z,78.66
2022-10-22T16:20:58.448Z,78.65
2022-10-22T16:23:24.970Z,78.70
2022-10-22T16:25:52.828Z,78.82
2022-10-22T16:28:19.325Z,78.80
2022-10-22T16:30:45.939Z,78.98
2022-10-22T16:33:12.389Z,78.99
2022-10-22T16:35:40.552Z,79.04
2022-10-22T16:38:07.404Z,79.24
2022-10-22T16:40:33.979Z,79.27
2022-10-22T16:43:01.860Z,79.16
2022-10-22T16:45:28.379Z,79.28
2022-10-22T16:47:54.921Z,79.30
2022-10-22T16:50:21.468Z,79.52
2022-10-22T16:52:47.995Z,79.41
2022-10-22T16:55:14.516Z,79.51
2022-10-22T16:57:41.273Z,79.46
2022-10-22T17:00:11.103Z,79.89
2022-10-22T17:02:37.695Z,79.83
2022-10-22T17:05:04.705Z,80.22
2022-10-22T17:07:31.262Z,80.42
2022-10-22T17:09:57.770Z,80.31
2022-10-22T17:12:24.316Z,80.86
2022-10-22T17:14:50.906Z,80.84
2022-10-22T17:17:18.747Z,81.04
2022-10-22T17:19:45.390Z,80.94
2022-10-22T17:22:14.875Z,80.75
2022-10-22T17:24:44.180Z,80.64
2022-10-22T17:27:10.730Z,80.35
2022-10-22T17:29:37.377Z,80.76
2022-10-22T17:32:04.107Z,80.98
2022-10-22T17:34:32.361Z,81.14
2022-10-22T17:36:58.974Z,81.20
2022-10-22T17:39:26.699Z,81.99
2022-10-22T17:41:53.268Z,82.07
2022-10-22T17:44:19.774Z,82.34
2022-10-22T17:46:46.277Z,82.78
2022-10-22T17:49:16.411Z,83.14
2022-10-22T17:51:44.368Z,83.67
2022-10-22T17:54:11.987Z,83.94
2022-10-22T17:56:39.262Z,83.90
2022-10-22T17:59:06.246Z,84.03
2022-10-22T18:01:34.780Z,84.06
2022-10-22T18:04:03.956Z,84.47
2022-10-22T18:06:31.076Z,84.36
2022-10-22T18:08:59.118Z,84.60
2022-10-22T18:11:27.588Z,84.70
2022-10-22T18:13:56.043Z,84.50
2022-10-22T18:16:23.254Z,84.60
2022-10-22T18:18:51.780Z,84.22
2022-10-22T18:21:19.010Z,84.42
2022-10-22T18:23:45.861Z,84.00
2022-10-22T18:26:13.924Z,84.04
2022-10-22T18:28:40.592Z,83.89
2022-10-22T18:31:09.363Z,83.91
2022-10-22T18:33:37.255Z,83.70
2022-10-22T18:36:05.920Z,83.40
2022-10-22T18:38:32.544Z,83.28
2022-10-22T18:40:59.163Z,83.31
2022-10-22T18:43:27.970Z,83.19
2022-10-22T18:45:54.562Z,82.91
2022-10-22T18:48:21.363Z,82.62
2022-10-22T18:50:48.302Z,82.55
2022-10-22T18:53:16.056Z,82.90
2022-10-22T18:55:42.748Z,82.88
2022-10-22T18:58:09.209Z,82.47
2022-10-22T19:00:37.186Z,82.25
2022-10-22T19:03:04.022Z,82.27
2022-10-22T19:05:30.975Z,82.55
2022-10-22T19:07:57.773Z,82.33
2022-10-22T19:10:24.345Z,82.51
2022-10-22T19:12:50.828Z,82.45
2022-10-22T19:15:17.811Z,82.85
2022-10-22T19:17:45.796Z,82.64
2022-10-22T19:20:13.141Z,82.75
2022-10-22T19:22:39.645Z,83.03
2022-10-22T19:25:09.728Z,83.29
2022-10-22T19:27:38.778Z,83.50
2022-10-22T19:30:06.517Z,83.81
2022-10-22T19:32:33.009Z,84.32
2022-10-22T19:35:00.902Z,84.53
2022-10-22T19:37:27.598Z,84.88
2022-10-22T19:39:54.268Z,85.15
2022-10-22T19:42:20.716Z,85.02
2022-10-22T19:44:47.216Z,85.17
2022-10-22T19:47:13.744Z,85.07
2022-10-22T19:49:40.466Z,85.36
2022-10-22T19:52:08.416Z,85.29
2022-10-22T19:54:34.950Z,85.31
2022-10-22T19:59:33.044Z,85.38
2022-10-22T20:01:59.533Z,85.55
2022-10-22T20:04:26.375Z,85.56
2022-10-22T20:06:52.893Z,85.51
2022-10-22T20:09:20.778Z,85.54
2022-10-22T20:11:47.471Z,85.87
2022-10-22T20:14:14.199Z,85.77
2022-10-22T20:16:41.396Z,85.68
2022-10-22T20:19:08.670Z,85.92
2022-10-22T20:21:35.269Z,85.67
2022-10-22T20:24:02.015Z,85.67
2022-10-22T20:26:29.874Z,85.58
2022-10-22T20:28:57.665Z,85.73
2022-10-22T20:31:25.812Z,85.41
2022-10-22T20:33:52.464Z,85.51
2022-10-22T20:36:21.892Z,85.65
2022-10-22T20:38:49.045Z,85.62
2022-10-22T20:41:18.107Z,85.58
2022-10-22T20:43:46.708Z,85.96
2022-10-22T20:46:17.612Z,85.91
2022-10-22T20:48:44.535Z,85.82
2022-10-22T20:51:12.066Z,85.83
2022-10-22T20:53:38.656Z,86.16
2022-10-22T20:56:05.411Z,86.03
2022-10-22T20:58:31.982Z,86.27
2022-10-22T21:00:59.940Z,86.06
2022-10-22T21:03:26.587Z,86.02
2022-10-22T21:05:53.182Z,85.99
2022-10-22T21:08:19.765Z,86.14
2022-10-22T21:10:46.538Z,86.07
2022-10-22T21:13:13.322Z,85.93
2022-10-22T21:15:39.791Z,85.89
2022-10-22T21:18:08.116Z,85.89
2022-10-22T21:20:34.640Z,85.81
2022-10-22T21:23:01.210Z,85.70
2022-10-22T21:25:27.865Z,85.83
2022-10-22T21:27:54.400Z,85.63
2022-10-22T21:30:20.867Z,85.51
2022-10-22T21:32:47.388Z,85.35
2022-10-22T21:35:15.538Z,85.22
2022-10-22T21:37:42.193Z,85.21
2022-10-22T21:40:09.966Z,85.07
2022-10-22T21:42:36.642Z,85.11
2022-10-22T21:45:03.604Z,85.16
2022-10-22T21:47:30.255Z,84.96
2022-10-22T21:49:56.729Z,84.63
2022-10-22T21:52:24.571Z,84.62
2022-10-22T21:54:51.132Z,84.41
2022-10-22T21:57:17.623Z,84.25
2022-10-22T21:59:44.159Z,84.07
2022-10-22T22:02:10.710Z,84.03
2022-10-22T22:04:37.237Z,84.10
2022-10-22T22:07:03.708Z,83.89
2022-10-22T22:09:31.819Z,83.89
2022-10-22T22:11:58.291Z,83.80
2022-10-22T22:14:24.835Z,83.77
2022-10-22T22:16:51.374Z,83.56
2022-10-22T22:19:17.903Z,83.83
2022-10-22T22:21:44.404Z,83.78
2022-10-22T22:24:12.753Z,83.61
2022-10-22T22:26:41.100Z,83.66
2022-10-22T22:29:07.637Z,83.54
2022-10-22T22:31:35.326Z,83.33
2022-10-22T22:34:03.315Z,83.53
2022-10-22T22:36:33.800Z,83.02
2022-10-22T22:39:00.437Z,83.18
2022-10-22T22:41:26.908Z,83.12
2022-10-22T22:46:26.708Z,83.03
2022-10-22T22:48:53.272Z,82.92
2022-10-22T22:51:20.028Z,82.99
2022-10-22T22:53:46.699Z,83.24
2022-10-22T22:56:15.277Z,83.38
2022-10-22T22:58:42.047Z,83.36
2022-10-22T23:01:15.890Z,83.53
2022-10-22T23:03:43.589Z,83.87
2022-10-22T23:06:10.943Z,84.04
2022-10-22T23:08:37.618Z,84.56
2022-10-22T23:11:05.648Z,84.84
2022-10-22T23:13:32.299Z,84.68
2022-10-22T23:15:58.840Z,85.17
2022-10-22T23:18:26.760Z,85.12
2022-10-22T23:20:53.269Z,85.12
2022-10-22T23:23:19.956Z,85.08
2022-10-22T23:25:46.550Z,84.84
2022-10-22T23:28:13.058Z,84.81
2022-10-22T23:30:42.651Z,85.16
2022-10-22T23:33:09.252Z,85.21
2022-10-22T23:35:40.645Z,84.77
2022-10-22T23:38:07.442Z,85.02
2022-10-22T23:40:33.984Z,85.23
2022-10-22T23:43:00.705Z,85.96
2022-10-22T23:45:27.240Z,86.07
2022-10-22T23:47:53.730Z,86.42
2022-10-22T23:50:20.312Z,86.45
2022-10-22T23:52:48.172Z,86.46
2022-10-22T23:55:14.699Z,86.48
2022-10-22T23:57:41.177Z,86.37
